sensor_id;sensor_type;location;lat;lon;timestamp;P1;durP1;ratioP1;P2;durP2;ratioP2
1358;SDS011;673;48.098;14.422;2023-12-04T00:00:37;7.40;;;4.95;;
1358;SDS011;673;48.098;14.422;2023-12-04T00:03:04;10.70;;;7.25;;
1358;SDS011;673;48.098;14.422;2023-12-04T00:05:31;8.77;;;4.47;;
1358;SDS011;673;48.098;14.422;2023-12-04T00:07:58;10.90;;;6.55;;
1358;SDS011;673;48.098;14.422;2023-12-04T00:10:25;8.50;;;6.80;;
1358;SDS011;673;48.098;14.422;2023-12-04T00:12:52;7.35;;;6.65;;
1358;SDS011;673;48.098;14.422;2023-12-04T00:15:19;14.57;;;6.15;;
1358;SDS011;673;48.098;14.422;2023-12-04T00:17:47;11.23;;;7.10;;
1358;SDS011;673;48.098;14.422;2023-12-04T00:20:14;13.32;;;6.88;;
1358;SDS011;673;48.098;14.422;2023-12-04T00:22:41;15.18;;;7.38;;
1358;SDS011;673;48.098;14.422;2023-12-04T00:25:08;9.63;;;7.53;;
1358;SDS011;673;48.098;14.422;2023-12-04T00:27:35;16.25;;;8.55;;
1358;SDS011;673;48.098;14.422;2023-12-04T00:30:03;11.15;;;7.63;;
1358;SDS011;673;48.098;14.422;2023-12-04T00:32:31;26.40;;;7.25;;
1358;SDS011;673;48.098;14.422;2023-12-04T00:34:59;12.77;;;7.90;;
1358;SDS011;673;48.098;14.422;2023-12-04T00:37:26;12.27;;;7.25;;
1358;SDS011;673;48.098;14.422;2023-12-04T00:39:53;22.33;;;8.27;;
1358;SDS011;673;48.098;14.422;2023-12-04T00:42:20;16.42;;;8.93;;
1358;SDS011;673;48.098;14.422;2023-12-04T00:44:47;19.75;;;10.52;;
1358;SDS011;673;48.098;14.422;2023-12-04T00:47:14;29.08;;;10.68;;
1358;SDS011;673;48.098;14.422;2023-12-04T00:49:41;10.95;;;8.40;;
1358;SDS011;673;48.098;14.422;2023-12-04T00:52:10;14.02;;;9.85;;
1358;SDS011;673;48.098;14.422;2023-12-04T00:54:38;17.85;;;8.25;;
1358;SDS011;673;48.098;14.422;2023-12-04T00:57:06;22.08;;;7.40;;
1358;SDS011;673;48.098;14.422;2023-12-04T00:59:33;16.10;;;8.52;;
1358;SDS011;673;48.098;14.422;2023-12-04T01:02:00;10.27;;;5.50;;
1358;SDS011;673;48.098;14.422;2023-12-04T01:04:27;21.17;;;7.10;;
1358;SDS011;673;48.098;14.422;2023-12-04T01:06:54;11.90;;;6.63;;
1358;SDS011;673;48.098;14.422;2023-12-04T01:09:22;14.20;;;6.45;;
1358;SDS011;673;48.098;14.422;2023-12-04T01:11:51;9.68;;;8.07;;
1358;SDS011;673;48.098;14.422;2023-12-04T01:14:19;13.38;;;7.95;;
1358;SDS011;673;48.098;14.422;2023-12-04T01:16:46;12.63;;;8.15;;
1358;SDS011;673;48.098;14.422;2023-12-04T01:19:14;6.93;;;6.25;;
1358;SDS011;673;48.098;14.422;2023-12-04T01:21:41;14.88;;;8.50;;
1358;SDS011;673;48.098;14.422;2023-12-04T01:24:08;11.50;;;6.90;;
1358;SDS011;673;48.098;14.422;2023-12-04T01:26:37;7.75;;;6.93;;
1358;SDS011;673;48.098;14.422;2023-12-04T01:29:04;20.05;;;7.57;;
1358;SDS011;673;48.098;14.422;2023-12-04T01:31:31;9.20;;;5.82;;
1358;SDS011;673;48.098;14.422;2023-12-04T01:33:58;10.15;;;6.38;;
1358;SDS011;673;48.098;14.422;2023-12-04T01:36:25;14.48;;;8.23;;
1358;SDS011;673;48.098;14.422;2023-12-04T01:38:51;14.25;;;8.20;;
1358;SDS011;673;48.098;14.422;2023-12-04T01:41:18;14.32;;;7.70;;
1358;SDS011;673;48.098;14.422;2023-12-04T01:43:47;9.70;;;6.25;;
1358;SDS011;673;48.098;14.422;2023-12-04T01:46:15;8.60;;;6.53;;
1358;SDS011;673;48.098;14.422;2023-12-04T01:48:44;8.48;;;7.00;;
1358;SDS011;673;48.098;14.422;2023-12-04T01:51:11;8.35;;;5.35;;
1358;SDS011;673;48.098;14.422;2023-12-04T01:53:39;7.78;;;5.35;;
1358;SDS011;673;48.098;14.422;2023-12-04T01:56:07;13.63;;;6.57;;
1358;SDS011;673;48.098;14.422;2023-12-04T01:58:35;6.90;;;5.90;;
1358;SDS011;673;48.098;14.422;2023-12-04T02:01:05;7.35;;;5.03;;
1358;SDS011;673;48.098;14.422;2023-12-04T02:03:32;12.90;;;8.10;;
1358;SDS011;673;48.098;14.422;2023-12-04T02:05:59;15.25;;;6.75;;
1358;SDS011;673;48.098;14.422;2023-12-04T02:08:28;11.45;;;7.97;;
1358;SDS011;673;48.098;14.422;2023-12-04T02:10:56;10.40;;;6.32;;
1358;SDS011;673;48.098;14.422;2023-12-04T02:13:22;10.15;;;6.20;;
1358;SDS011;673;48.098;14.422;2023-12-04T02:15:51;10.40;;;8.93;;
1358;SDS011;673;48.098;14.422;2023-12-04T02:18:22;11.98;;;7.43;;
1358;SDS011;673;48.098;14.422;2023-12-04T02:20:50;10.02;;;6.07;;
1358;SDS011;673;48.098;14.422;2023-12-04T02:23:18;7.13;;;6.43;;
1358;SDS011;673;48.098;14.422;2023-12-04T02:25:46;8.18;;;5.88;;
1358;SDS011;673;48.098;14.422;2023-12-04T02:28:14;12.20;;;5.25;;
1358;SDS011;673;48.098;14.422;2023-12-04T02:30:43;8.90;;;4.22;;
1358;SDS011;673;48.098;14.422;2023-12-04T02:33:12;4.90;;;4.07;;
1358;SDS011;673;48.098;14.422;2023-12-04T02:35:41;12.00;;;6.40;;
1358;SDS011;673;48.098;14.422;2023-12-04T02:38:09;11.50;;;7.00;;
1358;SDS011;673;48.098;14.422;2023-12-04T02:40:36;9.90;;;6.28;;
1358;SDS011;673;48.098;14.422;2023-12-04T02:43:05;11.20;;;7.70;;
1358;SDS011;673;48.098;14.422;2023-12-04T02:45:32;14.13;;;7.70;;
1358;SDS011;673;48.098;14.422;2023-12-04T02:47:59;19.90;;;8.82;;
1358;SDS011;673;48.098;14.422;2023-12-04T02:50:26;17.15;;;8.27;;
1358;SDS011;673;48.098;14.422;2023-12-04T02:52:53;13.18;;;7.53;;
1358;SDS011;673;48.098;14.422;2023-12-04T02:55:19;12.10;;;8.40;;
1358;SDS011;673;48.098;14.422;2023-12-04T02:57:46;11.65;;;7.68;;
1358;SDS011;673;48.098;14.422;2023-12-04T03:00:15;13.10;;;7.25;;
1358;SDS011;673;48.098;14.422;2023-12-04T03:02:42;10.43;;;5.85;;
1358;SDS011;673;48.098;14.422;2023-12-04T03:05:09;11.43;;;6.82;;
1358;SDS011;673;48.098;14.422;2023-12-04T03:07:36;10.30;;;7.25;;
1358;SDS011;673;48.098;14.422;2023-12-04T03:10:04;14.60;;;7.97;;
1358;SDS011;673;48.098;14.422;2023-12-04T03:12:31;16.25;;;9.73;;
1358;SDS011;673;48.098;14.422;2023-12-04T03:14:58;16.63;;;9.27;;
1358;SDS011;673;48.098;14.422;2023-12-04T03:17:27;15.98;;;9.95;;
1358;SDS011;673;48.098;14.422;2023-12-04T03:19:54;14.20;;;8.48;;
1358;SDS011;673;48.098;14.422;2023-12-04T03:22:20;13.77;;;7.63;;
1358;SDS011;673;48.098;14.422;2023-12-04T03:24:47;13.65;;;7.30;;
1358;SDS011;673;48.098;14.422;2023-12-04T03:27:14;9.93;;;6.57;;
1358;SDS011;673;48.098;14.422;2023-12-04T03:29:41;16.67;;;9.35;;
1358;SDS011;673;48.098;14.422;2023-12-04T03:32:08;18.20;;;8.77;;
1358;SDS011;673;48.098;14.422;2023-12-04T03:34:37;13.93;;;6.72;;
1358;SDS011;673;48.098;14.422;2023-12-04T03:37:04;14.05;;;5.10;;
1358;SDS011;673;48.098;14.422;2023-12-04T03:39:31;12.45;;;8.07;;
1358;SDS011;673;48.098;14.422;2023-12-04T03:41:58;11.38;;;7.57;;
1358;SDS011;673;48.098;14.422;2023-12-04T03:44:25;16.27;;;7.93;;
1358;SDS011;673;48.098;14.422;2023-12-04T03:46:51;14.90;;;8.43;;
1358;SDS011;673;48.098;14.422;2023-12-04T03:49:19;12.43;;;6.05;;
1358;SDS011;673;48.098;14.422;2023-12-04T03:51:47;10.32;;;5.53;;
1358;SDS011;673;48.098;14.422;2023-12-04T03:54:14;18.02;;;8.95;;
1358;SDS011;673;48.098;14.422;2023-12-04T03:56:41;11.95;;;6.50;;
1358;SDS011;673;48.098;14.422;2023-12-04T03:59:08;9.48;;;6.35;;
1358;SDS011;673;48.098;14.422;2023-12-04T04:01:35;8.60;;;4.13;;
1358;SDS011;673;48.098;14.422;2023-12-04T04:04:03;9.55;;;5.15;;
1358;SDS011;673;48.098;14.422;2023-12-04T04:06:30;6.53;;;4.85;;
1358;SDS011;673;48.098;14.422;2023-12-04T04:08:58;11.52;;;6.93;;
1358;SDS011;673;48.098;14.422;2023-12-04T04:11:25;12.15;;;8.25;;
1358;SDS011;673;48.098;14.422;2023-12-04T04:13:52;7.30;;;5.10;;
1358;SDS011;673;48.098;14.422;2023-12-04T04:16:19;13.30;;;5.53;;
1358;SDS011;673;48.098;14.422;2023-12-04T04:18:46;8.43;;;6.75;;
1358;SDS011;673;48.098;14.422;2023-12-04T04:21:13;6.82;;;4.65;;
1358;SDS011;673;48.098;14.422;2023-12-04T04:23:40;12.60;;;6.68;;
1358;SDS011;673;48.098;14.422;2023-12-04T04:26:08;11.55;;;5.13;;
1358;SDS011;673;48.098;14.422;2023-12-04T04:28:35;10.35;;;6.72;;
1358;SDS011;673;48.098;14.422;2023-12-04T04:31:02;5.22;;;4.57;;
1358;SDS011;673;48.098;14.422;2023-12-04T04:33:30;11.20;;;6.53;;
1358;SDS011;673;48.098;14.422;2023-12-04T04:35:57;6.13;;;4.80;;
1358;SDS011;673;48.098;14.422;2023-12-04T04:38:24;9.50;;;7.10;;
1358;SDS011;673;48.098;14.422;2023-12-04T04:40:51;11.68;;;5.63;;
1358;SDS011;673;48.098;14.422;2023-12-04T04:43:19;8.75;;;5.57;;
1358;SDS011;673;48.098;14.422;2023-12-04T04:45:46;17.23;;;6.25;;
1358;SDS011;673;48.098;14.422;2023-12-04T04:48:13;11.85;;;3.92;;
1358;SDS011;673;48.098;14.422;2023-12-04T04:50:40;7.95;;;4.85;;
1358;SDS011;673;48.098;14.422;2023-12-04T04:53:07;9.18;;;5.25;;
1358;SDS011;673;48.098;14.422;2023-12-04T04:55:34;8.90;;;5.82;;
1358;SDS011;673;48.098;14.422;2023-12-04T04:58:01;10.25;;;5.13;;
1358;SDS011;673;48.098;14.422;2023-12-04T05:00:29;11.40;;;5.97;;
1358;SDS011;673;48.098;14.422;2023-12-04T05:02:56;12.70;;;4.30;;
1358;SDS011;673;48.098;14.422;2023-12-04T05:05:23;10.63;;;7.45;;
1358;SDS011;673;48.098;14.422;2023-12-04T05:07:50;14.88;;;6.88;;
1358;SDS011;673;48.098;14.422;2023-12-04T05:10:17;9.60;;;6.00;;
1358;SDS011;673;48.098;14.422;2023-12-04T05:12:44;8.80;;;6.13;;
1358;SDS011;673;48.098;14.422;2023-12-04T05:15:11;8.00;;;6.38;;
1358;SDS011;673;48.098;14.422;2023-12-04T05:17:40;8.55;;;5.93;;
1358;SDS011;673;48.098;14.422;2023-12-04T05:20:07;11.80;;;4.95;;
1358;SDS011;673;48.098;14.422;2023-12-04T05:22:35;8.07;;;5.53;;
1358;SDS011;673;48.098;14.422;2023-12-04T05:25:02;9.30;;;5.80;;
1358;SDS011;673;48.098;14.422;2023-12-04T05:27:29;6.45;;;3.85;;
1358;SDS011;673;48.098;14.422;2023-12-04T05:29:56;8.45;;;5.82;;
1358;SDS011;673;48.098;14.422;2023-12-04T05:32:23;7.70;;;4.55;;
1358;SDS011;673;48.098;14.422;2023-12-04T05:34:52;9.73;;;5.63;;
1358;SDS011;673;48.098;14.422;2023-12-04T05:37:19;8.88;;;4.10;;
1358;SDS011;673;48.098;14.422;2023-12-04T05:39:46;10.65;;;6.45;;
1358;SDS011;673;48.098;14.422;2023-12-04T05:42:13;9.75;;;5.57;;
1358;SDS011;673;48.098;14.422;2023-12-04T05:44:40;13.07;;;5.25;;
1358;SDS011;673;48.098;14.422;2023-12-04T05:47:07;11.32;;;5.53;;
1358;SDS011;673;48.098;14.422;2023-12-04T05:49:34;6.43;;;4.65;;
1358;SDS011;673;48.098;14.422;2023-12-04T05:52:03;4.18;;;3.70;;
1358;SDS011;673;48.098;14.422;2023-12-04T05:54:30;8.20;;;4.93;;
1358;SDS011;673;48.098;14.422;2023-12-04T05:56:57;13.60;;;6.10;;
1358;SDS011;673;48.098;14.422;2023-12-04T05:59:24;5.10;;;4.60;;
1358;SDS011;673;48.098;14.422;2023-12-04T06:01:51;11.43;;;5.38;;
1358;SDS011;673;48.098;14.422;2023-12-04T06:04:18;11.43;;;3.90;;
1358;SDS011;673;48.098;14.422;2023-12-04T06:06:45;9.18;;;6.78;;
1358;SDS011;673;48.098;14.422;2023-12-04T06:09:13;7.15;;;4.35;;
1358;SDS011;673;48.098;14.422;2023-12-04T06:11:41;6.43;;;5.78;;
1358;SDS011;673;48.098;14.422;2023-12-04T06:14:09;7.55;;;4.95;;
1358;SDS011;673;48.098;14.422;2023-12-04T06:16:36;6.30;;;5.32;;
1358;SDS011;673;48.098;14.422;2023-12-04T06:19:03;6.25;;;4.72;;
1358;SDS011;673;48.098;14.422;2023-12-04T06:21:30;12.07;;;6.30;;
1358;SDS011;673;48.098;14.422;2023-12-04T06:23:58;4.30;;;3.90;;
1358;SDS011;673;48.098;14.422;2023-12-04T06:26:27;13.48;;;5.95;;
1358;SDS011;673;48.098;14.422;2023-12-04T06:28:55;4.82;;;3.45;;
1358;SDS011;673;48.098;14.422;2023-12-04T06:31:23;9.93;;;5.63;;
1358;SDS011;673;48.098;14.422;2023-12-04T06:33:51;8.68;;;5.20;;
1358;SDS011;673;48.098;14.422;2023-12-04T06:36:18;6.93;;;3.67;;
1358;SDS011;673;48.098;14.422;2023-12-04T06:38:46;8.18;;;4.88;;
1358;SDS011;673;48.098;14.422;2023-12-04T06:41:17;8.88;;;4.53;;
1358;SDS011;673;48.098;14.422;2023-12-04T06:43:48;8.50;;;4.95;;
1358;SDS011;673;48.098;14.422;2023-12-04T06:46:15;10.60;;;5.45;;
1358;SDS011;673;48.098;14.422;2023-12-04T06:48:43;6.50;;;4.03;;
1358;SDS011;673;48.098;14.422;2023-12-04T06:51:10;6.95;;;2.90;;
1358;SDS011;673;48.098;14.422;2023-12-04T06:53:37;5.53;;;2.85;;
1358;SDS011;673;48.098;14.422;2023-12-04T06:56:05;8.55;;;4.35;;
1358;SDS011;673;48.098;14.422;2023-12-04T06:58:33;7.28;;;3.17;;
1358;SDS011;673;48.098;14.422;2023-12-04T07:01:02;8.18;;;6.00;;
1358;SDS011;673;48.098;14.422;2023-12-04T07:03:29;7.80;;;3.22;;
1358;SDS011;673;48.098;14.422;2023-12-04T07:05:56;6.32;;;4.30;;
1358;SDS011;673;48.098;14.422;2023-12-04T07:08:23;7.13;;;4.40;;
1358;SDS011;673;48.098;14.422;2023-12-04T07:10:51;12.85;;;8.30;;
1358;SDS011;673;48.098;14.422;2023-12-04T07:13:17;11.15;;;6.20;;
1358;SDS011;673;48.098;14.422;2023-12-04T07:15:45;8.48;;;5.10;;
1358;SDS011;673;48.098;14.422;2023-12-04T07:18:13;8.25;;;5.47;;
1358;SDS011;673;48.098;14.422;2023-12-04T07:20:40;10.38;;;6.63;;
1358;SDS011;673;48.098;14.422;2023-12-04T07:23:07;12.25;;;5.97;;
1358;SDS011;673;48.098;14.422;2023-12-04T07:25:34;15.80;;;6.43;;
1358;SDS011;673;48.098;14.422;2023-12-04T07:28:01;10.52;;;7.47;;
1358;SDS011;673;48.098;14.422;2023-12-04T07:30:28;6.68;;;5.00;;
1358;SDS011;673;48.098;14.422;2023-12-04T07:32:55;10.68;;;6.95;;
1358;SDS011;673;48.098;14.422;2023-12-04T07:35:24;12.48;;;9.10;;
1358;SDS011;673;48.098;14.422;2023-12-04T07:37:51;11.50;;;7.35;;
1358;SDS011;673;48.098;14.422;2023-12-04T07:40:18;10.73;;;9.52;;
1358;SDS011;673;48.098;14.422;2023-12-04T07:42:47;13.70;;;9.10;;
1358;SDS011;673;48.098;14.422;2023-12-04T07:45:15;14.30;;;9.35;;
1358;SDS011;673;48.098;14.422;2023-12-04T07:47:42;10.80;;;7.97;;
1358;SDS011;673;48.098;14.422;2023-12-04T07:50:09;10.13;;;6.40;;
1358;SDS011;673;48.098;14.422;2023-12-04T07:52:38;9.32;;;6.05;;
1358;SDS011;673;48.098;14.422;2023-12-04T07:55:05;11.88;;;6.60;;
1358;SDS011;673;48.098;14.422;2023-12-04T07:57:32;10.13;;;6.25;;
1358;SDS011;673;48.098;14.422;2023-12-04T07:59:59;13.35;;;7.45;;
1358;SDS011;673;48.098;14.422;2023-12-04T08:02:26;6.72;;;5.63;;
1358;SDS011;673;48.098;14.422;2023-12-04T08:04:53;15.60;;;6.60;;
1358;SDS011;673;48.098;14.422;2023-12-04T08:07:20;7.65;;;5.55;;
1358;SDS011;673;48.098;14.422;2023-12-04T08:09:48;10.15;;;6.30;;
1358;SDS011;673;48.098;14.422;2023-12-04T08:12:15;7.60;;;6.15;;
1358;SDS011;673;48.098;14.422;2023-12-04T08:14:42;8.57;;;6.65;;
1358;SDS011;673;48.098;14.422;2023-12-04T08:17:09;7.20;;;4.78;;
1358;SDS011;673;48.098;14.422;2023-12-04T08:19:36;7.32;;;5.97;;
1358;SDS011;673;48.098;14.422;2023-12-04T08:22:04;8.55;;;5.75;;
1358;SDS011;673;48.098;14.422;2023-12-04T08:24:32;13.05;;;8.10;;
1358;SDS011;673;48.098;14.422;2023-12-04T08:27:00;10.57;;;7.38;;
1358;SDS011;673;48.098;14.422;2023-12-04T08:29:27;10.23;;;6.35;;
1358;SDS011;673;48.098;14.422;2023-12-04T08:31:54;11.20;;;7.65;;
1358;SDS011;673;48.098;14.422;2023-12-04T08:34:21;9.95;;;6.50;;
1358;SDS011;673;48.098;14.422;2023-12-04T08:36:48;24.38;;;8.65;;
1358;SDS011;673;48.098;14.422;2023-12-04T08:39:15;10.27;;;7.28;;
1358;SDS011;673;48.098;14.422;2023-12-04T08:41:44;9.32;;;7.20;;
1358;SDS011;673;48.098;14.422;2023-12-04T08:44:13;12.52;;;6.20;;
1358;SDS011;673;48.098;14.422;2023-12-04T08:46:41;11.98;;;6.82;;
1358;SDS011;673;48.098;14.422;2023-12-04T08:49:08;7.13;;;4.15;;
1358;SDS011;673;48.098;14.422;2023-12-04T08:51:35;8.60;;;6.85;;
1358;SDS011;673;48.098;14.422;2023-12-04T08:54:02;9.15;;;6.03;;
1358;SDS011;673;48.098;14.422;2023-12-04T08:56:29;9.98;;;6.18;;
1358;SDS011;673;48.098;14.422;2023-12-04T08:58:56;12.75;;;7.97;;
1358;SDS011;673;48.098;14.422;2023-12-04T09:01:25;10.20;;;6.07;;
1358;SDS011;673;48.098;14.422;2023-12-04T09:03:52;10.18;;;6.47;;
1358;SDS011;673;48.098;14.422;2023-12-04T09:06:19;7.28;;;5.05;;
1358;SDS011;673;48.098;14.422;2023-12-04T09:08:46;13.13;;;6.75;;
1358;SDS011;673;48.098;14.422;2023-12-04T09:11:13;10.38;;;6.80;;
1358;SDS011;673;48.098;14.422;2023-12-04T09:13:40;11.50;;;5.60;;
1358;SDS011;673;48.098;14.422;2023-12-04T09:16:07;9.80;;;5.45;;
1358;SDS011;673;48.098;14.422;2023-12-04T09:18:36;8.85;;;5.18;;
1358;SDS011;673;48.098;14.422;2023-12-04T09:21:03;8.07;;;4.82;;
1358;SDS011;673;48.098;14.422;2023-12-04T09:23:30;8.45;;;6.18;;
1358;SDS011;673;48.098;14.422;2023-12-04T09:25:57;8.88;;;4.88;;
1358;SDS011;673;48.098;14.422;2023-12-04T09:28:24;9.10;;;4.72;;
1358;SDS011;673;48.098;14.422;2023-12-04T09:30:51;7.63;;;4.80;;
1358;SDS011;673;48.098;14.422;2023-12-04T09:33:18;8.50;;;5.20;;
1358;SDS011;673;48.098;14.422;2023-12-04T09:35:46;6.22;;;3.80;;
1358;SDS011;673;48.098;14.422;2023-12-04T09:38:14;6.78;;;4.78;;
1358;SDS011;673;48.098;14.422;2023-12-04T09:40:41;9.05;;;3.92;;
1358;SDS011;673;48.098;14.422;2023-12-04T09:43:08;8.02;;;4.13;;
1358;SDS011;673;48.098;14.422;2023-12-04T09:45:36;5.45;;;3.70;;
1358;SDS011;673;48.098;14.422;2023-12-04T09:48:05;5.70;;;2.70;;
1358;SDS011;673;48.098;14.422;2023-12-04T09:50:34;7.32;;;3.33;;
1358;SDS011;673;48.098;14.422;2023-12-04T09:53:03;6.65;;;4.03;;
1358;SDS011;673;48.098;14.422;2023-12-04T09:55:32;5.90;;;4.25;;
1358;SDS011;673;48.098;14.422;2023-12-04T09:57:59;5.57;;;5.05;;
1358;SDS011;673;48.098;14.422;2023-12-04T10:00:27;7.05;;;4.65;;
1358;SDS011;673;48.098;14.422;2023-12-04T10:02:55;5.20;;;3.95;;
1358;SDS011;673;48.098;14.422;2023-12-04T10:05:22;7.63;;;4.32;;
1358;SDS011;673;48.098;14.422;2023-12-04T10:07:49;7.82;;;4.80;;
1358;SDS011;673;48.098;14.422;2023-12-04T10:10:18;6.72;;;4.53;;
1358;SDS011;673;48.098;14.422;2023-12-04T10:12:44;4.68;;;3.90;;
1358;SDS011;673;48.098;14.422;2023-12-04T10:15:12;3.40;;;3.05;;
1358;SDS011;673;48.098;14.422;2023-12-04T10:17:39;8.55;;;4.63;;
1358;SDS011;673;48.098;14.422;2023-12-04T10:20:09;7.15;;;4.28;;
1358;SDS011;673;48.098;14.422;2023-12-04T10:22:52;7.55;;;4.93;;
1358;SDS011;673;48.098;14.422;2023-12-04T10:25:22;7.40;;;4.50;;
1358;SDS011;673;48.098;14.422;2023-12-04T10:27:50;7.00;;;3.80;;
1358;SDS011;673;48.098;14.422;2023-12-04T10:30:25;4.32;;;3.92;;
1358;SDS011;673;48.098;14.422;2023-12-04T10:32:54;6.28;;;3.75;;
1358;SDS011;673;48.098;14.422;2023-12-04T10:35:24;8.00;;;4.93;;
1358;SDS011;673;48.098;14.422;2023-12-04T10:37:53;6.78;;;4.07;;
1358;SDS011;673;48.098;14.422;2023-12-04T10:40:25;4.63;;;3.05;;
1358;SDS011;673;48.098;14.422;2023-12-04T10:43:09;5.57;;;3.90;;
1358;SDS011;673;48.098;14.422;2023-12-04T10:45:38;5.95;;;4.22;;
1358;SDS011;673;48.098;14.422;2023-12-04T10:48:06;7.05;;;4.35;;
1358;SDS011;673;48.098;14.422;2023-12-04T10:50:33;9.00;;;5.88;;
1358;SDS011;673;48.098;14.422;2023-12-04T10:53:03;7.22;;;3.83;;
1358;SDS011;673;48.098;14.422;2023-12-04T10:55:31;5.53;;;3.72;;
1358;SDS011;673;48.098;14.422;2023-12-04T10:57:59;6.80;;;4.75;;
1358;SDS011;673;48.098;14.422;2023-12-04T11:00:28;4.60;;;3.60;;
1358;SDS011;673;48.098;14.422;2023-12-04T11:03:00;10.18;;;6.18;;
1358;SDS011;673;48.098;14.422;2023-12-04T11:05:33;19.13;;;8.85;;
1358;SDS011;673;48.098;14.422;2023-12-04T11:08:03;33.05;;;13.90;;
1358;SDS011;673;48.098;14.422;2023-12-04T11:10:33;15.05;;;8.57;;
1358;SDS011;673;48.098;14.422;2023-12-04T11:13:10;16.92;;;11.70;;
1358;SDS011;673;48.098;14.422;2023-12-04T11:15:41;30.50;;;20.77;;
1358;SDS011;673;48.098;14.422;2023-12-04T11:18:11;6.90;;;5.45;;
1358;SDS011;673;48.098;14.422;2023-12-04T11:20:44;34.33;;;22.80;;
1358;SDS011;673;48.098;14.422;2023-12-04T11:23:16;34.40;;;18.58;;
1358;SDS011;673;48.098;14.422;2023-12-04T11:25:45;10.20;;;6.38;;
1358;SDS011;673;48.098;14.422;2023-12-04T11:28:12;14.82;;;9.10;;
1358;SDS011;673;48.098;14.422;2023-12-04T11:30:40;11.85;;;10.48;;
1358;SDS011;673;48.098;14.422;2023-12-04T11:33:08;15.52;;;12.50;;
1358;SDS011;673;48.098;14.422;2023-12-04T11:35:37;21.15;;;16.80;;
1358;SDS011;673;48.098;14.422;2023-12-04T11:38:05;12.75;;;8.38;;
1358;SDS011;673;48.098;14.422;2023-12-04T11:40:34;10.68;;;6.88;;
1358;SDS011;673;48.098;14.422;2023-12-04T11:43:06;12.65;;;8.80;;
1358;SDS011;673;48.098;14.422;2023-12-04T11:45:48;7.97;;;5.18;;
1358;SDS011;673;48.098;14.422;2023-12-04T11:48:15;14.43;;;10.73;;
1358;SDS011;673;48.098;14.422;2023-12-04T11:50:42;9.05;;;7.18;;
1358;SDS011;673;48.098;14.422;2023-12-04T11:53:10;9.63;;;4.88;;
1358;SDS011;673;48.098;14.422;2023-12-04T11:55:39;10.70;;;5.95;;
1358;SDS011;673;48.098;14.422;2023-12-04T11:58:10;11.82;;;7.53;;
1358;SDS011;673;48.098;14.422;2023-12-04T12:00:38;10.45;;;7.88;;
1358;SDS011;673;48.098;14.422;2023-12-04T12:03:05;11.07;;;8.48;;
1358;SDS011;673;48.098;14.422;2023-12-04T12:05:34;12.38;;;6.50;;
1358;SDS011;673;48.098;14.422;2023-12-04T12:08:04;10.77;;;8.60;;
1358;SDS011;673;48.098;14.422;2023-12-04T12:10:32;12.35;;;9.68;;
1358;SDS011;673;48.098;14.422;2023-12-04T12:13:00;10.65;;;8.18;;
1358;SDS011;673;48.098;14.422;2023-12-04T12:15:29;11.02;;;7.88;;
1358;SDS011;673;48.098;14.422;2023-12-04T12:17:57;9.25;;;7.07;;
1358;SDS011;673;48.098;14.422;2023-12-04T12:20:24;9.68;;;8.05;;
1358;SDS011;673;48.098;14.422;2023-12-04T12:22:52;11.18;;;7.35;;
1358;SDS011;673;48.098;14.422;2023-12-04T12:25:19;10.23;;;7.45;;
1358;SDS011;673;48.098;14.422;2023-12-04T12:27:47;8.60;;;7.00;;
1358;SDS011;673;48.098;14.422;2023-12-04T12:30:15;8.82;;;6.20;;
1358;SDS011;673;48.098;14.422;2023-12-04T12:32:43;15.18;;;8.77;;
1358;SDS011;673;48.098;14.422;2023-12-04T12:35:10;17.77;;;10.82;;
1358;SDS011;673;48.098;14.422;2023-12-04T12:37:38;20.85;;;11.90;;
1358;SDS011;673;48.098;14.422;2023-12-04T12:40:06;15.07;;;9.90;;
1358;SDS011;673;48.098;14.422;2023-12-04T12:42:35;17.15;;;8.20;;
1358;SDS011;673;48.098;14.422;2023-12-04T12:45:07;20.55;;;11.75;;
1358;SDS011;673;48.098;14.422;2023-12-04T12:47:36;12.25;;;8.60;;
1358;SDS011;673;48.098;14.422;2023-12-04T12:50:05;17.08;;;9.40;;
1358;SDS011;673;48.098;14.422;2023-12-04T12:52:36;23.35;;;10.05;;
1358;SDS011;673;48.098;14.422;2023-12-04T12:55:04;12.98;;;7.40;;
1358;SDS011;673;48.098;14.422;2023-12-04T12:57:31;19.33;;;9.52;;
1358;SDS011;673;48.098;14.422;2023-12-04T12:59:59;13.95;;;9.02;;
1358;SDS011;673;48.098;14.422;2023-12-04T13:02:26;17.75;;;9.23;;
1358;SDS011;673;48.098;14.422;2023-12-04T13:04:53;19.25;;;8.73;;
1358;SDS011;673;48.098;14.422;2023-12-04T13:07:24;19.75;;;9.98;;
1358;SDS011;673;48.098;14.422;2023-12-04T13:09:51;12.00;;;8.57;;
1358;SDS011;673;48.098;14.422;2023-12-04T13:12:18;10.75;;;7.15;;
1358;SDS011;673;48.098;14.422;2023-12-04T13:14:45;20.67;;;9.43;;
1358;SDS011;673;48.098;14.422;2023-12-04T13:17:12;9.20;;;5.95;;
1358;SDS011;673;48.098;14.422;2023-12-04T13:19:39;16.13;;;8.90;;
1358;SDS011;673;48.098;14.422;2023-12-04T13:22:06;11.57;;;9.18;;
1358;SDS011;673;48.098;14.422;2023-12-04T13:24:34;20.35;;;9.77;;
1358;SDS011;673;48.098;14.422;2023-12-04T13:27:01;12.27;;;8.80;;
1358;SDS011;673;48.098;14.422;2023-12-04T13:29:28;19.27;;;9.10;;
1358;SDS011;673;48.098;14.422;2023-12-04T13:31:55;14.40;;;8.73;;
1358;SDS011;673;48.098;14.422;2023-12-04T13:34:22;18.75;;;10.15;;
1358;SDS011;673;48.098;14.422;2023-12-04T13:36:49;12.80;;;8.15;;
1358;SDS011;673;48.098;14.422;2023-12-04T13:39:16;12.35;;;7.75;;
1358;SDS011;673;48.098;14.422;2023-12-04T13:41:54;13.55;;;8.38;;
1358;SDS011;673;48.098;14.422;2023-12-04T13:44:38;22.17;;;9.05;;
1358;SDS011;673;48.098;14.422;2023-12-04T13:47:06;23.25;;;17.73;;
1358;SDS011;673;48.098;14.422;2023-12-04T13:49:33;17.02;;;11.10;;
1358;SDS011;673;48.098;14.422;2023-12-04T13:52:00;23.45;;;12.02;;
1358;SDS011;673;48.098;14.422;2023-12-04T13:54:32;15.98;;;10.18;;
1358;SDS011;673;48.098;14.422;2023-12-04T13:57:10;20.45;;;11.25;;
1358;SDS011;673;48.098;14.422;2023-12-04T13:59:43;13.73;;;9.35;;
1358;SDS011;673;48.098;14.422;2023-12-04T14:02:10;14.02;;;8.52;;
1358;SDS011;673;48.098;14.422;2023-12-04T14:04:38;19.60;;;11.80;;
1358;SDS011;673;48.098;14.422;2023-12-04T14:07:05;21.10;;;11.65;;
1358;SDS011;673;48.098;14.422;2023-12-04T14:09:33;25.52;;;12.32;;
1358;SDS011;673;48.098;14.422;2023-12-04T14:12:01;13.82;;;8.45;;
1358;SDS011;673;48.098;14.422;2023-12-04T14:14:30;22.27;;;10.80;;
1358;SDS011;673;48.098;14.422;2023-12-04T14:16:58;23.00;;;10.32;;
1358;SDS011;673;48.098;14.422;2023-12-04T14:19:26;29.33;;;12.95;;
1358;SDS011;673;48.098;14.422;2023-12-04T14:21:53;29.05;;;15.20;;
1358;SDS011;673;48.098;14.422;2023-12-04T14:24:20;24.50;;;11.55;;
1358;SDS011;673;48.098;14.422;2023-12-04T14:26:47;25.45;;;11.23;;
1358;SDS011;673;48.098;14.422;2023-12-04T14:29:15;20.77;;;11.80;;
1358;SDS011;673;48.098;14.422;2023-12-04T14:31:43;15.90;;;8.70;;
1358;SDS011;673;48.098;14.422;2023-12-04T14:34:11;27.20;;;13.68;;
1358;SDS011;673;48.098;14.422;2023-12-04T14:36:38;28.23;;;16.90;;
1358;SDS011;673;48.098;14.422;2023-12-04T14:39:05;30.38;;;20.33;;
1358;SDS011;673;48.098;14.422;2023-12-04T14:41:36;21.75;;;11.35;;
1358;SDS011;673;48.098;14.422;2023-12-04T14:44:03;14.77;;;10.55;;
1358;SDS011;673;48.098;14.422;2023-12-04T14:46:30;20.15;;;12.10;;
1358;SDS011;673;48.098;14.422;2023-12-04T14:48:58;26.58;;;13.90;;
1358;SDS011;673;48.098;14.422;2023-12-04T14:51:25;13.15;;;9.95;;
1358;SDS011;673;48.098;14.422;2023-12-04T14:53:52;18.50;;;11.05;;
1358;SDS011;673;48.098;14.422;2023-12-04T14:56:36;18.75;;;10.60;;
1358;SDS011;673;48.098;14.422;2023-12-04T14:59:28;11.57;;;8.25;;
1358;SDS011;673;48.098;14.422;2023-12-04T15:02:21;16.23;;;9.88;;
1358;SDS011;673;48.098;14.422;2023-12-04T15:05:12;19.13;;;10.82;;
1358;SDS011;673;48.098;14.422;2023-12-04T15:08:00;13.93;;;9.88;;
1358;SDS011;673;48.098;14.422;2023-12-04T15:11:01;13.77;;;9.50;;